Time;durP1;ratioP1;P1;durP2;ratioP2;P2;SDS_P1;SDS_P2;PMS_P1;PMS_P2;Temp;Humidity;BMP_temperature;BMP_pressure;BME280_temperature;BME280_humidity;BME280_pressure;Samples;Min_cycle;Max_cycle;Signal;HPM_P1;HPM_P2
2021/12/03 00:01:10;;;;;;;4.23;3.67;;;;;;;7.41;84.63;93829.81;5073448;28;20483;-80
2021/12/03 00:03:38;;;;;;;7.60;3.20;;;;;;;8.10;82.23;93834.03;5073767;28;20892;-79
2021/12/03 00:06:05;;;;;;;2.57;2.37;;;;;;;9.19;76.06;93835.91;5073258;28;20434;-79
2021/12/03 00:08:32;;;;;;;2.83;2.23;;;;;;;9.57;74.61;93824.34;5073228;28;20454;-79
2021/12/03 00:11:03;;;;;;;3.27;2.10;;;;;;;9.86;73.01;93817.06;5073492;28;20435;-79
2021/12/03 00:13:34;;;;;;;2.97;2.57;;;;;;;10.09;71.77;93830.47;5074114;28;20474;-80
2021/12/03 00:16:02;;;;;;;5.00;2.90;;;;;;;10.12;70.94;93824.97;5073442;28;20538;-79
2021/12/03 00:18:29;;;;;;;3.43;2.33;;;;;;;10.36;70.60;93795.47;5073471;28;20439;-80
2021/12/03 00:20:57;;;;;;;4.20;2.50;;;;;;;10.50;69.59;93784.41;5073230;28;20480;-80
2021/12/03 00:23:25;;;;;;;4.93;2.97;;;;;;;10.53;69.79;93796.38;5073275;28;20441;-80
2021/12/03 00:25:53;;;;;;;3.17;2.37;;;;;;;10.53;69.54;93806.88;5073486;28;20432;-80
2021/12/03 00:28:21;;;;;;;3.00;2.80;;;;;;;10.50;68.99;93820.31;5073327;28;20445;-80
2021/12/03 00:30:48;;;;;;;2.80;2.60;;;;;;;10.50;70.30;93808.00;5038794;28;20451;-80
2021/12/03 00:33:15;;;;;;;2.50;2.13;;;;;;;10.57;69.69;93810.00;5073161;28;20941;-80
2021/12/03 00:35:42;;;;;;;3.53;2.30;;;;;;;10.57;69.50;93799.50;5073070;28;20445;-80
2021/12/03 00:38:09;;;;;;;3.07;2.50;;;;;;;10.65;70.27;93797.72;5072932;28;20466;-80
2021/12/03 00:40:39;;;;;;;3.20;2.70;;;;;;;10.70;69.47;93807.78;5072386;28;20490;-80
2021/12/03 00:43:07;;;;;;;5.03;4.20;;;;;;;10.63;69.12;93810.19;5073036;28;20428;-80
2021/12/03 00:45:36;;;;;;;3.27;2.50;;;;;;;10.74;69.15;93804.69;5054704;28;21344;-81
2021/12/03 00:48:04;;;;;;;3.10;2.40;;;;;;;10.91;68.77;93813.41;5073036;28;20936;-80
2021/12/03 00:50:32;;;;;;;2.60;2.37;;;;;;;10.96;68.87;93845.25;5073340;28;20426;-81
2021/12/03 00:53:00;;;;;;;6.00;3.50;;;;;;;10.92;68.90;93832.63;5073107;28;20447;-81
2021/12/03 00:55:29;;;;;;;5.03;4.30;;;;;;;10.84;68.45;93826.34;5073766;28;20441;-80
2021/12/03 00:57:56;;;;;;;4.13;3.73;;;;;;;10.77;69.29;93832.41;5072855;28;20908;-80
2021/12/03 01:00:27;;;;;;;5.10;3.70;;;;;;;10.67;68.89;93832.50;5072799;28;20465;-81
2021/12/03 01:02:57;;;;;;;5.97;5.37;;;;;;;10.56;69.12;93838.03;5073658;28;20886;-80
2021/12/03 01:08:46;;;;;;;4.30;3.80;;;;;;;10.25;69.55;93842.94;5074775;28;20517;-81
2021/12/03 01:11:14;;;;;;;5.67;2.10;;;;;;;10.59;69.29;93855.25;5076892;28;20453;-80
2021/12/03 01:13:42;;;;;;;5.97;2.10;;;;;;;11.20;66.78;93848.97;5076548;28;20986;-81
2021/12/03 01:16:10;;;;;;;2.37;2.13;;;;;;;11.51;65.76;93847.41;5077101;28;20443;-80
2021/12/03 01:18:40;;;;;;;3.93;3.03;;;;;;;11.73;64.65;93836.28;5076505;28;20448;-80
2021/12/03 01:21:08;;;;;;;2.13;2.00;;;;;;;11.70;65.28;93847.13;5075141;28;20487;-80
2021/12/03 01:23:35;;;;;;;3.17;2.87;;;;;;;11.67;66.49;93851.88;5075506;28;20436;-81
2021/12/03 01:26:02;;;;;;;2.70;2.50;;;;;;;11.65;66.53;93843.34;5075219;28;20441;-81
2021/12/03 01:28:29;;;;;;;4.83;3.13;;;;;;;11.60;65.42;93835.94;5075069;28;20545;-81
2021/12/03 01:30:58;;;;;;;4.97;2.90;;;;;;;11.57;66.37;93846.78;5075058;28;20539;-80
2021/12/03 01:33:25;;;;;;;3.30;2.50;;;;;;;11.51;66.53;93836.06;5040254;28;20437;-80
2021/12/03 01:35:53;;;;;;;4.77;3.50;;;;;;;11.49;67.94;93846.75;5075007;28;20454;-81
2021/12/03 01:38:20;;;;;;;5.77;3.33;;;;;;;11.41;67.62;93859.88;5075138;28;20455;-80
2021/12/03 01:40:47;;;;;;;5.00;3.13;;;;;;;11.05;67.89;93848.75;5075222;28;20484;-80
2021/12/03 01:43:20;;;;;;;2.53;2.33;;;;;;;10.96;67.62;93798.00;5074990;28;20440;-80
2021/12/03 01:45:47;;;;;;;3.40;2.30;;;;;;;11.12;66.91;93829.59;5074774;28;20451;-80
2021/12/03 01:48:14;;;;;;;7.90;3.20;;;;;;;10.96;67.05;93840.00;5039702;28;20452;-81
2021/12/03 01:50:43;;;;;;;5.17;3.50;;;;;;;10.72;69.22;93842.56;5074876;28;20459;-80
2021/12/03 01:53:15;;;;;;;4.30;3.17;;;;;;;10.53;68.26;93819.97;5074957;28;20792;-80
2021/12/03 01:55:45;;;;;;;2.63;2.37;;;;;;;10.35;69.92;93796.44;5074823;28;20445;-80
2021/12/03 01:58:13;;;;;;;6.80;3.60;;;;;;;10.38;70.89;93832.00;5074742;28;20444;-81
2021/12/03 02:00:45;;;;;;;4.70;3.70;;;;;;;10.29;69.99;93833.78;5074380;28;20476;-80
2021/12/03 02:03:14;;;;;;;5.47;3.40;;;;;;;10.18;71.30;93790.25;5074664;28;20448;-80
2021/12/03 02:05:42;;;;;;;5.70;3.37;;;;;;;10.13;71.18;93804.81;5074785;28;20448;-80
2021/12/03 02:08:09;;;;;;;2.50;2.30;;;;;;;10.16;72.03;93838.59;5074412;28;20445;-80
2021/12/03 02:10:38;;;;;;;4.20;1.97;;;;;;;10.28;70.00;93790.19;5074377;28;20440;-81
2021/12/03 02:13:06;;;;;;;2.87;2.50;;;;;;;10.55;69.50;93776.06;5074699;28;20451;-80
2021/12/03 02:15:33;;;;;;;4.63;2.53;;;;;;;10.61;69.90;93806.91;5074138;28;20460;-80
2021/12/03 02:18:00;;;;;;;4.30;3.83;;;;;;;10.49;69.80;93813.41;5074391;28;20466;-80
2021/12/03 02:20:27;;;;;;;4.90;3.33;;;;;;;10.41;69.69;93795.84;5073381;28;20491;-80
2021/12/03 02:22:56;;;;;;;4.97;3.13;;;;;;;10.07;72.24;93795.75;5074298;28;20466;-80
2021/12/03 02:25:24;;;;;;;5.27;3.20;;;;;;;10.08;71.12;93797.38;5074257;28;20452;-80
2021/12/03 02:27:53;;;;;;;5.10;3.70;;;;;;;9.99;71.69;93795.69;5073920;28;20453;-80
2021/12/03 02:30:22;;;;;;;7.00;3.63;;;;;;;9.92;71.73;93795.50;5074199;28;20443;-80
2021/12/03 02:32:50;;;;;;;3.83;3.43;;;;;;;9.79;72.47;93762.78;5073970;28;20931;-81
2021/12/03 02:35:17;;;;;;;4.53;4.10;;;;;;;9.73;73.01;93802.69;5074282;28;20458;-80
2021/12/03 02:37:44;;;;;;;7.27;4.27;;;;;;;9.69;73.94;93814.47;5073938;28;20835;-80
2021/12/03 02:40:14;;;;;;;2.73;2.53;;;;;;;9.63;73.48;93764.34;5073703;28;20991;-80
2021/12/03 02:42:42;;;;;;;4.27;3.87;;;;;;;9.71;74.90;93802.03;5073766;28;20446;-80
2021/12/03 02:45:10;;;;;;;3.90;3.60;;;;;;;9.73;74.07;93810.56;5038485;28;20523;-80
2021/12/03 02:47:38;;;;;;;3.80;3.50;;;;;;;9.72;73.60;93794.03;5073759;28;20451;-80
2021/12/03 02:50:08;;;;;;;6.07;4.93;;;;;;;9.69;74.15;93794.31;5073836;28;20800;-80
2021/12/03 02:52:35;;;;;;;5.83;4.27;;;;;;;9.59;74.35;93812.75;5074105;28;20447;-80
2021/12/03 02:55:03;;;;;;;13.47;4.67;;;;;;;9.57;74.30;93814.69;5073576;28;20445;-80
2021/12/03 02:57:32;;;;;;;4.00;3.70;;;;;;;9.51;73.61;93814.47;5073648;28;20437;-80
2021/12/03 02:59:59;;;;;;;4.00;3.70;;;;;;;9.28;74.04;93801.00;5073403;28;20474;-80
2021/12/03 03:02:25;;;;;;;5.73;4.30;;;;;;;9.21;73.80;93800.75;5073189;28;20499;-80
2021/12/03 03:04:53;;;;;;;5.57;4.30;;;;;;;9.13;73.96;93816.41;5054594;28;20434;-80
2021/12/03 03:07:21;;;;;;;4.90;4.40;;;;;;;8.87;74.78;93824.13;5073062;28;20813;-80
2021/12/03 03:09:48;;;;;;;8.17;4.33;;;;;;;8.93;74.51;93823.53;5037896;28;20440;-80
2021/12/03 03:12:15;;;;;;;4.60;3.93;;;;;;;8.87;75.07;93812.81;5073245;28;20454;-80
2021/12/03 03:14:46;;;;;;;4.17;3.80;;;;;;;8.92;74.67;93848.03;5073132;28;20472;-80
2021/12/03 03:17:13;;;;;;;5.13;3.63;;;;;;;8.84;75.11;93841.91;5072997;28;20438;-80
2021/12/03 03:19:40;;;;;;;8.93;4.17;;;;;;;8.84;75.04;93820.97;5073226;28;20450;-80
2021/12/03 03:22:07;;;;;;;4.13;3.83;;;;;;;8.90;75.30;93823.00;5072959;28;20476;-80
2021/12/03 03:24:34;;;;;;;7.73;4.10;;;;;;;8.86;75.48;93819.03;5073068;28;20445;-80
2021/12/03 03:27:02;;;;;;;5.13;4.63;;;;;;;8.80;74.56;93802.13;5072962;28;20786;-80
2021/12/03 03:29:30;;;;;;;6.03;4.57;;;;;;;8.85;74.84;93797.28;5073163;28;20450;-80
2021/12/03 03:31:59;;;;;;;6.67;4.60;;;;;;;8.74;74.74;93820.22;5072823;28;20535;-80
2021/12/03 03:34:26;;;;;;;4.40;4.00;;;;;;;8.59;75.02;93833.75;5072786;28;20438;-80
2021/12/03 03:36:53;;;;;;;5.23;4.20;;;;;;;8.58;74.34;93821.63;5072655;28;20434;-80
2021/12/03 03:39:21;;;;;;;7.17;5.53;;;;;;;8.50;74.99;93821.53;5072833;28;20461;-79
2021/12/03 03:41:49;;;;;;;5.17;4.50;;;;;;;8.55;74.96;93808.03;5072524;28;20565;-80
2021/12/03 03:44:16;;;;;;;7.43;4.20;;;;;;;8.55;75.43;93835.00;5072503;28;20446;-80
2021/12/03 03:46:44;;;;;;;4.10;3.70;;;;;;;8.49;74.75;93825.13;5072575;28;20446;-80
2021/12/03 03:49:12;;;;;;;6.23;4.33;;;;;;;8.52;74.61;93803.91;5072487;28;20520;-80
2021/12/03 03:51:39;;;;;;;5.30;3.67;;;;;;;8.57;74.39;93816.56;5072688;28;20449;-80
2021/12/03 03:54:06;;;;;;;4.33;3.90;;;;;;;8.50;74.40;93832.00;5072710;28;20468;-80
2021/12/03 03:56:33;;;;;;;4.37;3.97;;;;;;;8.50;74.20;93825.94;5072482;28;20457;-80
2021/12/03 03:59:00;;;;;;;4.70;4.07;;;;;;;8.48;74.28;93844.41;5053623;28;20800;-80
2021/12/03 04:01:27;;;;;;;6.63;4.20;;;;;;;8.49;74.12;93845.22;5036905;28;20496;-80
2021/12/03 04:03:55;;;;;;;4.17;3.80;;;;;;;8.35;73.81;93833.41;5072290;28;20790;-80
2021/12/03 04:06:24;;;;;;;6.83;4.40;;;;;;;8.49;74.68;93851.28;5072375;28;20437;-80
2021/12/03 04:08:51;;;;;;;4.93;4.20;;;;;;;8.49;74.33;93825.13;5072422;28;20448;-80
2021/12/03 04:11:21;;;;;;;4.63;3.90;;;;;;;8.38;74.06;93839.22;5072302;28;20836;-80
2021/12/03 04:13:48;;;;;;;5.70;4.50;;;;;;;8.36;74.35;93845.53;5072440;28;20480;-80
2021/12/03 04:16:15;;;;;;;4.47;4.07;;;;;;;8.32;74.23;93838.91;5072077;28;20438;-80
2021/12/03 04:18:42;;;;;;;6.50;4.57;;;;;;;8.32;74.42;93833.69;5072019;28;20450;-80
2021/12/03 04:21:09;;;;;;;6.40;4.00;;;;;;;8.19;74.81;93833.19;5072042;28;20480;-80
2021/12/03 04:23:38;;;;;;;5.40;4.37;;;;;;;8.25;74.92;93832.59;5036652;28;20433;-80
2021/12/03 04:26:05;;;;;;;4.93;4.50;;;;;;;8.27;74.78;93833.28;5036927;28;20808;-80
2021/12/03 04:28:32;;;;;;;8.00;4.97;;;;;;;8.17;75.11;93829.88;5071852;28;20442;-80
2021/12/03 04:30:59;;;;;;;4.77;4.20;;;;;;;8.21;75.17;93831.25;5071801;28;20946;-80
2021/12/03 04:33:26;;;;;;;13.60;5.03;;;;;;;8.26;75.16;93829.03;5036826;28;20457;-80
2021/12/03 04:35:53;;;;;;;5.37;4.13;;;;;;;8.23;75.70;93834.53;5071705;28;20462;-80
2021/12/03 04:38:20;;;;;;;4.93;4.17;;;;;;;8.24;75.55;93836.19;5071931;28;20449;-80
2021/12/03 04:40:52;;;;;;;5.40;4.40;;;;;;;8.25;75.78;93850.91;5071924;28;20448;-79
2021/12/03 04:43:19;;;;;;;5.50;5.00;;;;;;;8.23;75.33;93847.59;5074297;28;20441;-80
2021/12/03 04:45:46;;;;;;;6.53;4.27;;;;;;;8.22;75.51;93835.50;5040647;28;20929;-80
2021/12/03 04:48:13;;;;;;;7.13;4.53;;;;;;;8.14;76.27;93848.47;5076181;28;20436;-80
2021/12/03 04:50:42;;;;;;;6.73;4.67;;;;;;;8.16;75.60;93856.97;5076000;28;20444;-80
2021/12/03 04:53:11;;;;;;;5.00;4.50;;;;;;;8.12;75.76;93853.81;5075956;28;20468;-81
2021/12/03 04:55:39;;;;;;;5.00;4.50;;;;;;;8.06;76.12;93849.97;5075678;28;20941;-81
2021/12/03 04:58:07;;;;;;;7.80;4.17;;;;;;;8.12;76.47;93866.06;5075930;28;20445;-81
2021/12/03 05:00:46;;;;;;;8.13;4.60;;;;;;;8.12;76.05;93846.00;5075772;28;20932;-81
2021/12/03 05:03:16;;;;;;;4.67;3.97;;;;;;;8.19;76.24;93859.31;5042245;28;20487;-81
2021/12/03 05:05:49;;;;;;;4.83;3.90;;;;;;;8.23;76.27;93881.56;5075768;28;20456;-81
2021/12/03 05:08:16;;;;;;;5.97;5.37;;;;;;;8.21;76.68;93883.50;5076921;28;20480;-81
2021/12/03 05:10:44;;;;;;;10.30;4.40;;;;;;;8.24;76.28;93862.31;5077111;28;20443;-81
2021/12/03 05:13:15;;;;;;;10.43;4.80;;;;;;;8.22;76.48;93891.22;5077302;28;20440;-80
2021/12/03 05:15:43;;;;;;;5.73;3.93;;;;;;;8.20;76.04;93884.47;5076819;28;20990;-81
2021/12/03 05:18:13;;;;;;;4.50;4.10;;;;;;;8.23;76.47;93882.41;5076926;28;20431;-81
2021/12/03 05:27:23;;;;;;;7.10;5.33;;;;;;;8.32;76.68;93891.19;5075712;28;20480;-81
2021/12/03 05:29:52;;;;;;;5.43;4.93;;;;;;;8.31;76.31;93890.34;5071433;28;20452;-80
2021/12/03 05:32:20;;;;;;;21.80;11.67;;;;;;;8.20;76.43;93887.91;5076041;28;20493;-81
2021/12/03 05:34:47;;;;;;;33.03;16.53;;;;;;;8.31;76.64;93907.81;5082573;28;20445;-79
2021/12/03 05:37:14;;;;;;;20.00;11.27;;;;;;;8.19;76.74;93903.72;5076608;28;20538;-81
2021/12/03 05:39:42;;;;;;;21.40;9.97;;;;;;;8.16;76.65;93904.00;5080879;28;20451;-79
2021/12/03 05:42:10;;;;;;;13.53;8.70;;;;;;;8.32;77.11;93915.53;5082875;28;20545;-78
2021/12/03 05:44:38;;;;;;;11.30;7.83;;;;;;;8.36;77.04;93908.25;5080688;28;20497;-79
2021/12/03 05:47:07;;;;;;;4.77;4.37;;;;;;;8.28;76.96;93908.09;5080945;28;20447;-84
2021/12/03 05:49:34;;;;;;;6.32;4.93;;;;;;;8.43;76.54;93919.81;5082162;28;20441;-81
2021/12/03 05:52:02;;;;;;;4.53;4.13;;;;;;;8.40;77.34;93914.06;5084182;28;20230;-76
2021/12/03 05:54:30;;;;;;;6.40;5.37;;;;;;;8.52;78.06;93936.44;5083115;28;20477;-78
2021/12/03 05:56:57;;;;;;;8.17;6.57;;;;;;;8.47;75.92;93931.63;5081341;28;20944;-75
2021/12/03 05:59:25;;;;;;;6.80;6.10;;;;;;;8.53;76.16;93920.59;5080420;28;20477;-76
2021/12/03 06:01:52;;;;;;;6.50;5.27;;;;;;;8.59;76.27;93925.25;5079222;28;20497;-77
2021/12/03 06:04:21;;;;;;;6.37;5.67;;;;;;;8.63;76.32;93931.03;5076357;28;20867;-78
2021/12/03 06:06:48;;;;;;;7.00;5.40;;;;;;;8.66;75.88;93934.19;5075277;28;20434;-79
2021/12/03 06:09:15;;;;;;;6.50;5.90;;;;;;;8.63;75.49;93942.31;5075631;28;20934;-79
2021/12/03 06:11:42;;;;;;;6.10;4.70;;;;;;;8.64;75.37;93928.28;5075830;28;20447;-78
2021/12/03 06:14:09;;;;;;;6.13;5.00;;;;;;;8.66;75.70;93939.41;5075976;28;20494;-78
2021/12/03 06:16:36;;;;;;;10.93;8.50;;;;;;;8.55;75.76;93929.13;5075422;28;20425;-78
2021/12/03 06:19:03;;;;;;;6.83;5.90;;;;;;;8.68;75.45;93942.75;5075716;28;20500;-79
2021/12/03 06:21:32;;;;;;;8.27;6.70;;;;;;;8.71;76.00;93946.84;5075733;28;20451;-79
2021/12/03 06:23:59;;;;;;;36.00;25.67;;;;;;;8.67;75.51;93945.47;5075587;28;20429;-79
2021/12/03 06:26:26;;;;;;;32.60;24.07;;;;;;;8.76;75.54;93931.56;5074879;28;20446;-79
2021/12/03 06:28:53;;;;;;;14.57;12.70;;;;;;;8.78;75.53;93936.66;5040226;28;20523;-79
2021/12/03 06:31:20;;;;;;;12.27;8.37;;;;;;;8.78;75.47;93950.56;5075049;28;20444;-79
2021/12/03 06:33:46;;;;;;;5.27;4.80;;;;;;;8.80;75.14;93927.69;5074262;28;20448;-79
2021/12/03 06:36:13;;;;;;;9.40;6.03;;;;;;;8.90;75.67;93928.47;5074213;28;20942;-78
2021/12/03 06:38:42;;;;;;;6.50;5.50;;;;;;;8.97;75.18;93940.03;5038340;28;20525;-79
2021/12/03 06:41:09;;;;;;;5.80;4.10;;;;;;;8.95;74.97;93941.09;5073878;28;20985;-79
2021/12/03 06:43:36;;;;;;;9.17;5.03;;;;;;;8.97;75.14;93941.81;5073356;28;20977;-79
2021/12/03 06:46:03;;;;;;;5.63;5.10;;;;;;;9.02;75.24;93942.22;5073488;28;20457;-79
2021/12/03 06:48:30;;;;;;;5.27;4.63;;;;;;;9.10;75.37;93951.94;5073976;28;20456;-79
2021/12/03 06:50:57;;;;;;;11.37;5.20;;;;;;;9.10;75.33;93942.31;5074664;28;20504;-79
2021/12/03 06:53:27;;;;;;;6.70;4.77;;;;;;;9.12;74.79;93956.06;5074153;28;20536;-78
2021/12/03 06:55:58;;;;;;;7.83;6.00;;;;;;;9.21;75.01;93960.44;5074305;28;20432;-79
2021/12/03 06:58:25;;;;;;;14.63;9.10;;;;;;;9.18;73.88;93955.47;5074231;28;20516;-79
2021/12/03 07:00:56;;;;;;;12.20;9.03;;;;;;;9.22;75.18;93951.59;5074002;28;20470;-79
2021/12/03 07:03:23;;;;;;;9.90;8.07;;;;;;;9.38;75.05;93953.59;5073337;28;20482;-79
2021/12/03 07:05:50;;;;;;;7.80;6.33;;;;;;;9.51;75.12;93966.34;5072642;28;20449;-79
2021/12/03 07:08:17;;;;;;;5.57;4.97;;;;;;;9.55;75.07;93981.63;5073424;28;20435;-79
2021/12/03 07:10:45;;;;;;;6.93;4.90;;;;;;;9.52;75.47;93965.38;5073202;28;20447;-81
2021/12/03 07:13:13;;;;;;;7.23;6.50;;;;;;;9.60;73.84;93962.88;5072948;28;20446;-81
2021/12/03 07:15:40;;;;;;;11.50;7.90;;;;;;;9.76;74.06;93973.50;5072872;28;20510;-79
2021/12/03 07:18:07;;;;;;;8.75;7.00;;;;;;;9.93;73.65;93964.84;5072341;28;20517;-79
2021/12/03 07:20:34;;;;;;;7.03;4.97;;;;;;;9.92;73.46;93957.97;5073172;28;20205;-79
2021/12/03 07:23:02;;;;;;;9.33;4.73;;;;;;;9.96;72.69;93963.72;5072933;28;20484;-80
2021/12/03 07:25:29;;;;;;;5.17;3.73;;;;;;;10.03;72.28;93959.53;5072631;28;20547;-79
2021/12/03 07:27:56;;;;;;;5.00;4.60;;;;;;;10.09;72.25;93965.97;5072077;28;20457;-80
2021/12/03 07:30:30;;;;;;;8.63;6.50;;;;;;;10.16;72.85;93973.09;5072761;28;20444;-80
2021/12/03 07:32:57;;;;;;;5.50;5.00;;;;;;;10.19;71.98;93970.16;5058978;28;20509;-80
2021/12/03 07:35:25;;;;;;;12.43;4.90;;;;;;;10.28;71.80;93968.47;5061294;28;20516;-79
2021/12/03 07:37:52;;;;;;;7.27;5.50;;;;;;;10.39;71.67;93960.34;5061530;28;20461;-80
2021/12/03 07:40:19;;;;;;;6.23;4.90;;;;;;;10.49;71.79;93955.88;5054104;28;21014;-80
2021/12/03 07:42:46;;;;;;;24.23;8.43;;;;;;;10.41;71.10;93945.31;5053831;28;20843;-80
2021/12/03 07:45:16;;;;;;;8.97;5.07;;;;;;;10.46;71.50;93939.63;5054225;28;20421;-78
2021/12/03 07:47:45;;;;;;;12.17;7.67;;;;;;;10.68;72.43;93948.75;5053801;28;20452;-77
2021/12/03 07:50:13;;;;;;;9.10;6.17;;;;;;;10.94;72.18;93949.59;5054154;28;20426;-80
2021/12/03 07:52:40;;;;;;;7.80;6.20;;;;;;;11.19;72.80;93942.66;5053995;28;20460;-80
2021/12/03 07:55:08;;;;;;;6.50;5.57;;;;;;;11.37;72.33;93939.97;5053941;28;20445;-80
2021/12/03 07:57:35;;;;;;;8.03;4.70;;;;;;;11.52;70.71;93948.88;5052117;28;20531;-80
2021/12/03 08:00:02;;;;;;;8.50;5.40;;;;;;;11.81;70.20;93952.94;5052499;28;20459;-80
2021/12/03 08:02:29;;;;;;;10.43;4.87;;;;;;;12.08;69.92;93953.50;5051956;28;20490;-78
2021/12/03 08:04:57;;;;;;;7.50;4.63;;;;;;;12.24;69.06;93959.78;5052448;28;20446;-78
2021/12/03 08:07:24;;;;;;;6.43;3.57;;;;;;;12.40;67.08;93954.50;5051951;28;20454;-78
2021/12/03 08:09:52;;;;;;;5.07;3.53;;;;;;;12.58;65.88;93956.97;5052683;28;20501;-78
2021/12/03 08:12:19;;;;;;;6.13;4.80;;;;;;;12.78;65.85;93968.00;5017370;28;20446;-78
2021/12/03 08:14:46;;;;;;;5.33;2.57;;;;;;;13.00;65.26;93962.03;5051974;28;20990;-78
2021/12/03 08:17:13;;;;;;;4.43;2.13;;;;;;;13.16;65.97;93961.19;5052260;28;20538;-78
2021/12/03 08:19:40;;;;;;;4.37;2.10;;;;;;;13.30;64.37;93971.91;5051936;28;20452;-78
2021/12/03 08:22:08;;;;;;;4.57;3.00;;;;;;;13.39;63.03;93977.94;5052532;28;20431;-79
2021/12/03 08:24:35;;;;;;;5.30;3.30;;;;;;;13.40;63.95;93984.88;5053352;28;20764;-79
2021/12/03 08:27:02;;;;;;;4.30;3.10;;;;;;;13.52;64.54;93974.78;5053683;28;20797;-79
2021/12/03 08:32:54;;;;;;;5.47;3.07;;;;;;;13.34;63.33;93975.00;5073155;28;20461;-79
2021/12/03 08:35:21;;;;;;;7.90;4.20;;;;;;;13.32;63.00;93984.91;5073575;28;20453;-80
2021/12/03 08:37:50;;;;;;;4.33;2.73;;;;;;;13.33;63.49;93978.63;5072985;28;20472;-79
2021/12/03 08:40:18;;;;;;;4.63;3.30;;;;;;;13.25;64.20;93970.72;5073334;28;20863;-78
2021/12/03 08:42:45;;;;;;;8.30;5.00;;;;;;;13.35;64.06;93976.66;5072994;28;20995;-79
2021/12/03 08:45:12;;;;;;;10.13;5.80;;;;;;;13.30;63.63;93966.63;5071718;28;20868;-79
2021/12/03 08:47:40;;;;;;;10.20;7.80;;;;;;;13.26;63.28;93975.00;5071712;28;20457;-79
2021/12/03 08:50:10;;;;;;;12.37;8.47;;;;;;;13.33;63.54;93968.91;5037001;28;21068;-79
2021/12/03 08:53:02;;;;;;;3.90;3.60;;;;;;;13.34;63.07;93969.75;5073197;28;20452;-79
2021/12/03 08:55:29;;;;;;;5.27;4.73;;;;;;;13.48;63.89;93966.38;5045298;28;20460;-79
2021/12/03 08:57:56;;;;;;;4.07;3.67;;;;;;;13.42;62.14;93982.06;5072798;28;20538;-80
2021/12/03 09:00:23;;;;;;;4.70;2.77;;;;;;;13.49;62.80;93973.28;5072864;28;20433;-79
2021/12/03 09:02:51;;;;;;;8.40;5.97;;;;;;;13.43;62.40;93984.53;5073195;28;20839;-79
2021/12/03 09:05:18;;;;;;;10.40;6.95;;;;;;;13.54;62.23;93985.97;5072140;28;20436;-79
2021/12/03 09:07:45;;;;;;;3.93;2.77;;;;;;;13.66;61.60;93984.63;5073242;28;20185;-79
2021/12/03 09:10:14;;;;;;;5.80;4.50;;;;;;;13.68;61.13;93993.16;5072986;28;20536;-79
2021/12/03 09:12:42;;;;;;;5.87;3.27;;;;;;;13.72;61.44;94002.38;5054611;28;20434;-79
2021/12/03 09:15:14;;;;;;;4.60;2.93;;;;;;;13.70;61.01;93988.53;5072798;28;20479;-79
2021/12/03 09:17:53;;;;;;;6.40;4.90;;;;;;;13.62;62.19;94004.41;5072136;28;20445;-79
2021/12/03 09:20:30;;;;;;;8.13;4.67;;;;;;;13.71;62.11;94002.56;5073337;28;20464;-79
2021/12/03 09:22:59;;;;;;;3.57;2.20;;;;;;;13.71;60.46;94013.09;5072561;28;20563;-79
2021/12/03 09:25:32;;;;;;;6.90;3.40;;;;;;;13.76;60.76;93992.31;5072884;28;20446;-79
2021/12/03 09:28:02;;;;;;;4.80;2.47;;;;;;;13.78;60.61;93979.78;5072935;28;20809;-79
2021/12/03 09:30:35;;;;;;;3.27;1.90;;;;;;;13.74;61.08;93989.84;5076603;28;20437;-79
2021/12/03 09:33:02;;;;;;;7.07;3.07;;;;;;;13.76;60.62;93974.69;5076743;28;20556;-78
2021/12/03 09:35:30;;;;;;;6.23;5.57;;;;;;;13.74;60.47;93983.75;5076480;28;20883;-79
2021/12/03 09:37:57;;;;;;;9.33;4.73;;;;;;;13.73;60.85;93975.03;5076791;28;20498;-79
2021/12/03 09:43:50;;;;;;;9.00;4.60;;;;;;;13.76;60.94;93987.03;5074735;28;20978;-79
2021/12/03 09:46:21;;;;;;;7.23;3.07;;;;;;;13.77;59.45;93976.31;5076150;28;20531;-77
2021/12/03 09:51:36;;;;;;;3.50;2.53;;;;;;;13.80;60.09;93991.78;5014412;28;20433;-78
2021/12/03 09:57:01;;;;;;;3.30;2.13;;;;;;;13.78;60.50;93987.69;4975309;28;20571;-78
2021/12/03 10:20:08;;;;;;;5.33;2.20;;;;;;;13.97;57.92;93966.19;4823190;29;20948;-79
2021/12/03 10:34:18;;;;;;;7.10;4.30;;;;;;;14.05;58.72;93945.03;4841885;29;20456;-81
2021/12/03 10:37:15;;;;;;;22.20;13.90;;;;;;;14.10;55.88;93950.59;4842048;29;20456;-80
2021/12/03 10:39:53;;;;;;;10.93;3.63;;;;;;;14.16;57.09;93965.72;4841536;29;20704;-79
2021/12/03 10:42:34;;;;;;;6.70;3.20;;;;;;;14.24;57.62;93965.69;4886990;29;20442;-79
2021/12/03 10:48:02;;;;;;;10.37;5.13;;;;;;;14.28;57.75;93963.50;4916120;29;20544;-79
2021/12/03 10:53:34;;;;;;;10.77;4.27;;;;;;;14.36;56.48;93957.34;4914340;29;20451;-79
2021/12/03 10:59:05;;;;;;;7.30;2.53;;;;;;;14.43;55.30;93972.31;4935909;29;21022;-78
2021/12/03 11:05:14;;;;;;;3.13;2.70;;;;;;;14.45;55.38;93948.41;4997538;28;20484;-79
2021/12/03 11:08:03;;;;;;;6.93;3.63;;;;;;;14.36;55.68;93960.00;5052250;28;20462;-78
2021/12/03 11:30:42;;;;;;;5.50;3.17;;;;;;;14.37;53.78;93964.28;5051979;28;20439;-79
2021/12/03 11:39:30;;;;;;;4.63;3.70;;;;;;;14.59;55.43;93962.66;5073805;28;20433;-79
2021/12/03 12:26:24;;;;;;;5.10;3.13;;;;;;;14.49;53.54;93926.78;5073298;28;20445;-81
2021/12/03 13:19:36;;;;;;;8.20;2.67;;;;;;;14.18;56.70;93934.72;5073620;28;20417;-80
2021/12/03 14:00:12;;;;;;;9.13;3.93;;;;;;;14.23;57.07;93940.28;4994602;28;20422;-80
2021/12/03 14:39:50;;;;;;;8.43;2.33;;;;;;;14.32;54.43;93969.25;5111208;27;21078;-79
2021/12/03 14:45:14;;;;;;;7.17;3.30;;;;;;;14.50;54.46;93967.19;5068547;28;20201;-79
2021/12/03 14:50:44;;;;;;;6.83;2.63;;;;;;;14.44;55.06;93973.16;5068447;28;20925;-79
2021/12/03 14:53:38;;;;;;;4.73;1.73;;;;;;;14.41;53.76;93973.47;5068360;28;20927;-79
2021/12/03 14:56:09;;;;;;;5.00;1.70;;;;;;;14.44;54.65;93970.50;5068302;28;20451;-78
2021/12/03 14:58:47;;;;;;;10.07;3.47;;;;;;;14.40;54.33;93964.72;5067980;28;20475;-78
2021/12/03 15:01:21;;;;;;;5.23;1.70;;;;;;;14.33;54.18;93969.06;5067886;28;21030;-79
2021/12/03 15:04:10;;;;;;;10.60;4.40;;;;;;;14.34;54.99;93981.28;5067924;28;20513;-79
2021/12/03 15:06:39;;;;;;;5.97;5.37;;;;;;;14.33;55.25;93971.72;5068185;28;20442;-79
2021/12/03 15:09:12;;;;;;;3.53;2.83;;;;;;;14.20;55.47;93987.31;5068046;28;20449;-79
2021/12/03 15:23:02;;;;;;;8.23;5.37;;;;;;;14.20;57.00;94003.97;5013612;28;20966;-79
2021/12/03 15:25:44;;;;;;;8.50;5.07;;;;;;;14.24;56.76;94010.53;5067629;28;20513;-79
2021/12/03 15:35:02;;;;;;;3.40;2.47;;;;;;;14.20;56.93;94019.81;5064909;28;20934;-79
2021/12/03 15:37:53;;;;;;;6.43;4.03;;;;;;;14.17;57.48;94017.50;5065011;28;20575;-79
2021/12/03 15:40:36;;;;;;;6.80;4.60;;;;;;;14.12;57.87;94019.81;5065305;28;20491;-79
2021/12/03 15:57:13;;;;;;;3.40;2.00;;;;;;;13.80;60.47;93991.78;5094993;28;20435;-79
2021/12/03 16:05:17;;;;;;;5.13;2.20;;;;;;;13.66;61.13;93999.63;5094833;28;20430;-79
2021/12/03 16:10:30;;;;;;;8.20;4.60;;;;;;;13.58;61.96;94003.91;5051474;28;20519;-80
2021/12/03 16:13:10;;;;;;;13.23;3.93;;;;;;;13.56;62.07;93995.34;5052048;28;20449;-79
2021/12/03 16:21:26;;;;;;;7.83;2.80;;;;;;;13.57;60.02;94002.25;4935790;28;20425;-79
2021/12/03 16:24:19;;;;;;;5.27;2.90;;;;;;;13.59;60.88;94010.03;4926472;28;20473;-80
2021/12/03 16:27:05;;;;;;;4.37;2.40;;;;;;;13.63;60.38;94004.22;4974469;28;20845;-79
2021/12/03 16:51:41;;;;;;;19.13;10.03;;;;;;;11.62;74.23;94088.84;4880214;29;20440;-79
2021/12/03 16:54:09;;;;;;;14.80;12.70;;;;;;;11.35;75.80;94113.47;4916637;29;20880;-80
2021/12/03 16:56:43;;;;;;;15.63;8.10;;;;;;;10.56;79.62;94116.09;4917493;29;20432;-82
2021/12/03 16:59:10;;;;;;;13.00;7.07;;;;;;;10.55;79.87;94120.50;4954639;29;20994;-78
2021/12/03 17:01:40;;;;;;;17.70;9.13;;;;;;;10.48;80.18;94119.47;4953894;28;20541;-79
2021/12/03 17:04:19;;;;;;;33.63;15.50;;;;;;;10.51;80.31;94137.53;4954491;29;20446;-81
2021/12/03 17:12:33;;;;;;;29.43;14.53;;;;;;;10.49;82.13;94149.97;4963397;28;20468;-82
2021/12/03 17:15:13;;;;;;;16.10;12.50;;;;;;;10.55;81.46;94146.75;4972412;28;21263;-82
2021/12/03 17:29:21;;;;;;;20.93;12.80;;;;;;;10.58;79.33;94189.38;5074104;28;20423;-82
2021/12/03 18:43:37;;;;;;;13.10;10.50;;;;;;;8.20;88.75;94279.06;5093515;28;20427;-82
2021/12/03 18:56:59;;;;;;;5.50;5.00;;;;;;;7.43;90.78;94275.03;4932005;29;20451;-79
2021/12/03 18:59:27;;;;;;;8.23;6.67;;;;;;;7.15;91.66;94279.06;4934089;29;20493;-80
2021/12/03 19:01:54;;;;;;;11.33;6.73;;;;;;;7.16;92.89;94272.06;4921433;29;20457;-80
2021/12/03 19:04:26;;;;;;;6.77;4.97;;;;;;;6.97;93.91;94277.16;4914753;29;20511;-80